createdAt,value
2018-11-12T00:00:16.001Z,14.80
2018-11-12T00:02:50.329Z,15.07
2018-11-12T00:05:21.152Z,15.57
2018-11-12T00:07:52.037Z,14.77
2018-11-12T00:13:30.338Z,14.83
2018-11-12T00:16:01.158Z,14.90
2018-11-12T00:18:32.320Z,16.40
2018-11-12T00:21:03.210Z,14.93
2018-11-12T00:23:34.121Z,17.13
2018-11-12T00:26:05.291Z,16.30
2018-11-12T00:28:36.258Z,16.23
2018-11-12T00:31:07.048Z,16.23
2018-11-12T00:33:37.813Z,15.20
2018-11-12T00:36:09.161Z,15.50
2018-11-12T00:38:40.085Z,15.63
2018-11-12T00:41:11.030Z,16.37
2018-11-12T00:43:41.660Z,16.97
2018-11-12T00:46:12.776Z,15.33
2018-11-12T00:48:43.813Z,16.27
2018-11-12T00:51:14.736Z,16.00
2018-11-12T00:53:45.644Z,16.20
2018-11-12T00:56:16.382Z,14.93
2018-11-12T00:58:47.268Z,15.40
2018-11-12T01:01:18.172Z,15.27
2018-11-12T01:03:48.961Z,14.83
2018-11-12T01:06:20.022Z,14.70
2018-11-12T01:09:01.338Z,13.23
2018-11-12T01:11:32.159Z,14.07
2018-11-12T01:14:02.980Z,12.90
2018-11-12T01:16:33.857Z,13.93
2018-11-12T01:19:06.019Z,12.90
2018-11-12T01:21:36.777Z,12.83
2018-11-12T01:24:09.159Z,13.60
2018-11-12T01:26:41.193Z,13.30
2018-11-12T01:29:12.811Z,12.77
2018-11-12T01:31:43.892Z,12.10
2018-11-12T01:34:14.947Z,12.60
2018-11-12T01:36:45.726Z,12.13
2018-11-12T01:39:16.851Z,13.17
2018-11-12T01:41:47.903Z,13.57
2018-11-12T01:44:19.124Z,12.87
2018-11-12T01:46:49.789Z,13.30
2018-11-12T01:49:20.766Z,13.33
2018-11-12T01:51:51.808Z,12.60
2018-11-12T01:54:22.878Z,14.13
2018-11-12T01:56:53.755Z,14.17
2018-11-12T01:59:24.468Z,13.87
2018-11-12T02:01:55.425Z,13.73
2018-11-12T02:04:26.474Z,12.83
2018-11-12T02:06:57.409Z,12.80
2018-11-12T02:09:28.300Z,12.57
2018-11-12T02:12:17.478Z,12.13
2018-11-12T02:14:55.042Z,12.87
2018-11-12T02:17:26.118Z,12.70
2018-11-12T02:19:56.921Z,13.50
2018-11-12T02:22:28.048Z,12.40
2018-11-12T02:24:58.977Z,13.07
2018-11-12T02:27:29.829Z,13.83
2018-11-12T02:30:16.820Z,13.33
2018-11-12T02:32:47.656Z,13.13
2018-11-12T02:35:18.698Z,14.50
2018-11-12T02:37:49.402Z,13.30
2018-11-12T02:40:20.629Z,14.37
2018-11-12T02:42:54.583Z,14.80
2018-11-12T02:45:26.490Z,14.03
2018-11-12T02:47:57.569Z,14.03
2018-11-12T02:50:28.369Z,12.77
2018-11-12T02:52:59.044Z,13.80
2018-11-12T02:55:30.363Z,13.43
2018-11-12T02:58:01.306Z,13.50
2018-11-12T03:00:32.421Z,13.47
2018-11-12T03:03:03.444Z,13.43
2018-11-12T03:05:34.368Z,13.53
2018-11-12T03:08:05.615Z,13.60
2018-11-12T03:10:36.681Z,12.77
2018-11-12T03:13:07.794Z,12.63
2018-11-12T03:15:38.777Z,13.27
2018-11-12T03:18:09.773Z,14.20
2018-11-12T03:20:40.745Z,13.23
2018-11-12T03:23:12.945Z,14.40
2018-11-12T03:25:43.996Z,12.47
2018-11-12T03:28:14.764Z,13.87
2018-11-12T03:30:45.784Z,12.97
2018-11-12T03:33:16.789Z,14.03
2018-11-12T03:35:47.884Z,12.47
2018-11-12T03:38:18.818Z,12.60
2018-11-12T03:40:50.000Z,12.80
2018-11-12T03:43:20.686Z,12.30
2018-11-12T03:45:51.920Z,12.03
2018-11-12T03:48:22.781Z,12.73
2018-11-12T03:50:54.494Z,12.07
2018-11-12T03:53:25.868Z,12.07
2018-11-12T03:55:58.183Z,11.73
2018-11-12T03:58:28.982Z,11.83
2018-11-12T04:00:59.805Z,10.87
2018-11-12T04:03:30.578Z,10.57
2018-11-12T04:06:01.618Z,11.17
2018-11-12T04:08:32.476Z,10.50
2018-11-12T04:11:03.454Z,12.30
2018-11-12T04:16:44.509Z,12.43
2018-11-12T04:19:15.317Z,11.87
2018-11-12T04:21:46.188Z,12.57
2018-11-12T04:24:16.908Z,11.13
2018-11-12T04:26:48.218Z,12.40
2018-11-12T04:29:19.412Z,11.87
2018-11-12T04:31:56.236Z,11.80
2018-11-12T04:34:27.362Z,12.90
2018-11-12T04:36:58.260Z,12.33
2018-11-12T04:39:28.891Z,11.97
2018-11-12T04:41:59.712Z,11.83
2018-11-12T04:44:30.658Z,10.57
2018-11-12T04:47:02.196Z,12.47
2018-11-12T04:49:33.318Z,12.70
2018-11-12T04:52:04.613Z,12.63
2018-11-12T04:54:35.681Z,14.23
2018-11-12T04:57:07.362Z,13.20
2018-11-12T04:59:38.298Z,12.53
2018-11-12T05:02:09.517Z,12.83
2018-11-12T05:04:40.507Z,12.93
2018-11-12T05:07:11.354Z,13.97
2018-11-12T05:09:42.166Z,13.80
2018-11-12T05:12:13.263Z,14.03
2018-11-12T05:14:54.495Z,14.40
2018-11-12T05:17:25.512Z,14.27
2018-11-12T05:19:56.174Z,14.17
2018-11-12T05:22:33.282Z,13.67
2018-11-12T05:25:04.220Z,13.53
2018-11-12T05:27:35.201Z,12.23
2018-11-12T05:30:09.177Z,12.83
2018-11-12T05:32:40.292Z,13.63
2018-11-12T05:35:11.722Z,13.23
2018-11-12T05:37:43.639Z,13.30
2018-11-12T05:40:16.250Z,13.60
2018-11-12T05:42:48.684Z,12.97
2018-11-12T05:45:21.640Z,14.50
2018-11-12T05:47:52.856Z,14.30
2018-11-12T05:50:25.816Z,14.13
2018-11-12T05:53:03.472Z,12.13
2018-11-12T05:55:35.448Z,12.03
2018-11-12T05:58:06.993Z,12.00
2018-11-12T06:00:38.160Z,12.27
2018-11-12T06:03:09.290Z,11.87
2018-11-12T06:05:40.112Z,13.20
2018-11-12T06:08:11.295Z,13.10
2018-11-12T06:10:42.356Z,13.07
2018-11-12T06:13:14.364Z,13.13
2018-11-12T06:15:46.720Z,12.40
2018-11-12T06:18:19.757Z,12.80
2018-11-12T06:20:50.738Z,13.43
2018-11-12T06:23:21.958Z,14.87
2018-11-12T06:25:52.894Z,14.27
2018-11-12T06:28:24.593Z,13.47
2018-11-12T06:30:55.213Z,15.10
2018-11-12T06:33:26.229Z,13.23
2018-11-12T06:35:57.200Z,13.07
2018-11-12T06:38:28.114Z,13.27
2018-11-12T06:40:59.810Z,15.47
2018-11-12T06:43:32.133Z,12.97
2018-11-12T06:46:02.615Z,14.00
2018-11-12T06:48:33.401Z,15.20
2018-11-12T06:52:29.853Z,15.80
2018-11-12T06:55:00.782Z,13.77
2018-11-12T06:57:31.455Z,14.50
2018-11-12T07:00:02.257Z,16.67
2018-11-12T07:02:37.016Z,17.40
2018-11-12T07:05:09.832Z,17.50
2018-11-12T07:07:41.080Z,16.03
2018-11-12T07:10:16.927Z,15.40
2018-11-12T07:12:52.664Z,15.53
2018-11-12T07:15:27.068Z,15.13
2018-11-12T07:17:58.790Z,13.73
2018-11-12T07:20:33.448Z,14.93
2018-11-12T07:23:08.280Z,14.13
2018-11-12T07:25:38.965Z,13.33
2018-11-12T07:28:09.546Z,13.50
2018-11-12T07:30:46.880Z,14.97
2018-11-12T07:33:17.578Z,13.40
2018-11-12T07:35:49.914Z,14.27
2018-11-12T07:38:20.639Z,13.30
2018-11-12T07:40:51.454Z,14.33
2018-11-12T07:43:22.380Z,13.40
2018-11-12T07:45:54.200Z,13.47
2018-11-12T07:48:25.593Z,13.80
2018-11-12T07:50:56.187Z,13.73
2018-11-12T07:53:27.197Z,12.13
2018-11-12T07:55:57.883Z,12.40
2018-11-12T07:58:28.464Z,13.13
2018-11-12T08:01:00.114Z,13.17
2018-11-12T08:03:30.858Z,13.27
2018-11-12T08:06:02.216Z,13.87
2018-11-12T08:08:32.997Z,13.00
2018-11-12T08:11:04.994Z,14.47
2018-11-12T08:13:35.994Z,14.27
2018-11-12T08:16:07.040Z,12.40
2018-11-12T08:24:59.867Z,11.40
2018-11-12T08:27:32.306Z,11.93
2018-11-12T08:30:03.113Z,11.37
2018-11-12T08:32:34.236Z,10.80
2018-11-12T08:35:16.735Z,12.60
2018-11-12T08:37:47.859Z,10.50
2018-11-12T08:40:22.366Z,11.70
2018-11-12T08:45:33.261Z,11.70
2018-11-12T08:48:04.457Z,11.17
2018-11-12T08:50:35.260Z,10.73
2018-11-12T08:53:06.276Z,11.30
2018-11-12T08:55:37.156Z,12.03
2018-11-12T08:58:12.701Z,11.20
2018-11-12T09:00:43.083Z,11.57
2018-11-12T09:03:14.893Z,11.80
2018-11-12T09:05:45.801Z,11.67
2018-11-12T09:08:16.639Z,11.60
2018-11-12T09:10:47.332Z,12.10
2018-11-12T09:13:18.337Z,10.87
2018-11-12T09:15:49.133Z,10.10
2018-11-12T09:18:19.706Z,10.10
2018-11-12T09:20:51.375Z,10.37
2018-11-12T09:23:22.029Z,12.40
2018-11-12T09:25:52.732Z,12.50
2018-11-12T09:28:23.875Z,12.47
2018-11-12T09:30:57.590Z,14.13
2018-11-12T09:33:27.040Z,13.30
2018-11-12T09:35:58.034Z,12.80
2018-11-12T09:38:29.509Z,12.57
2018-11-12T09:41:00.614Z,13.20
2018-11-12T09:43:31.363Z,14.07
2018-11-12T09:46:02.039Z,13.30
2018-11-12T09:48:33.101Z,14.50
2018-11-12T09:51:03.853Z,13.80
2018-11-12T09:53:34.462Z,13.20
2018-11-12T09:56:05.099Z,14.33
2018-11-12T09:58:36.161Z,12.90
2018-11-12T10:01:15.196Z,13.73
2018-11-12T10:03:47.519Z,13.20
2018-11-12T10:06:18.744Z,12.33
2018-11-12T10:08:50.812Z,12.87
2018-11-12T10:11:23.258Z,12.23
2018-11-12T10:13:53.260Z,12.53
2018-11-12T10:16:24.965Z,12.27
2018-11-12T10:18:53.747Z,13.60
2018-11-12T10:21:24.604Z,12.77
2018-11-12T10:23:56.499Z,12.40
2018-11-12T10:26:27.345Z,12.30
2018-11-12T10:28:57.988Z,13.27
2018-11-12T10:31:29.426Z,12.83
2018-11-12T10:34:00.150Z,11.43
2018-11-12T10:36:31.209Z,11.87
2018-11-12T10:39:03.225Z,12.83
2018-11-12T10:41:34.180Z,12.33
2018-11-12T10:44:05.676Z,12.63
2018-11-12T10:46:36.348Z,12.00
2018-11-12T10:49:07.850Z,11.77
2018-11-12T10:51:39.053Z,12.10
2018-11-12T10:54:10.207Z,12.70
2018-11-12T10:56:40.757Z,12.17
2018-11-12T10:59:11.963Z,11.77
2018-11-12T11:01:47.895Z,11.27
2018-11-12T11:04:22.957Z,12.73
2018-11-12T11:06:54.153Z,11.07
2018-11-12T11:09:24.857Z,12.30
2018-11-12T11:11:56.300Z,11.47
2018-11-12T11:14:27.010Z,12.50
2018-11-12T11:16:58.262Z,11.50
2018-11-12T11:19:30.936Z,11.80
2018-11-12T11:22:02.020Z,10.83
2018-11-12T11:24:32.655Z,11.73
2018-11-12T11:27:03.949Z,11.40
2018-11-12T11:29:34.705Z,11.77
2018-11-12T11:32:07.285Z,11.40
2018-11-12T11:34:38.706Z,12.07
2018-11-12T11:37:09.580Z,11.87
2018-11-12T11:39:41.093Z,11.60
2018-11-12T11:42:12.220Z,11.67
2018-11-12T11:44:43.179Z,12.13
2018-11-12T11:47:15.020Z,11.47
2018-11-12T11:49:45.724Z,11.70
2018-11-12T11:52:16.439Z,11.53
2018-11-12T11:54:47.492Z,12.27
2018-11-12T11:57:19.238Z,11.93
2018-11-12T11:59:50.093Z,11.77
2018-11-12T12:02:21.373Z,12.23
2018-11-12T12:04:56.089Z,11.47
2018-11-12T12:07:26.733Z,11.87
2018-11-12T12:10:02.627Z,11.47
2018-11-12T12:12:33.943Z,12.10
2018-11-12T12:15:05.485Z,11.50
2018-11-12T12:17:36.433Z,11.53
2018-11-12T12:20:10.882Z,11.17
2018-11-12T12:22:42.146Z,12.30
2018-11-12T12:25:14.021Z,11.00
2018-11-12T12:27:45.088Z,10.93
2018-11-12T12:30:19.240Z,10.13
2018-11-12T12:32:51.545Z,11.20
2018-11-12T12:35:22.494Z,10.83
2018-11-12T12:37:53.617Z,11.27
2018-11-12T12:40:25.009Z,10.43
2018-11-12T12:42:56.658Z,10.97
2018-11-12T12:48:34.810Z,9.60
2018-11-12T12:51:05.851Z,10.50
2018-11-12T12:53:37.057Z,10.03
2018-11-12T12:56:08.269Z,9.57
2018-11-12T12:58:40.018Z,9.30
2018-11-12T13:01:11.769Z,10.67
2018-11-12T13:03:42.812Z,10.03
2018-11-12T13:06:15.457Z,9.83
2018-11-12T13:08:46.102Z,9.40
2018-11-12T13:11:17.701Z,8.57
2018-11-12T13:13:48.760Z,9.10
2018-11-12T13:16:19.514Z,9.47
2018-11-12T13:18:50.781Z,9.27
2018-11-12T13:21:22.016Z,8.77
2018-11-12T13:23:53.599Z,9.67
2018-11-12T13:26:24.809Z,9.73
2018-11-12T13:28:57.224Z,9.60
2018-11-12T13:31:27.819Z,8.97
2018-11-12T13:33:59.550Z,9.10
2018-11-12T13:36:30.563Z,8.93
2018-11-12T13:39:01.377Z,9.90
2018-11-12T13:41:31.983Z,10.03
2018-11-12T13:44:02.896Z,9.83
2018-11-12T13:46:39.161Z,9.87
2018-11-12T13:49:10.396Z,9.70
2018-11-12T13:51:41.530Z,9.27
2018-11-12T13:54:12.345Z,9.47
2018-11-12T13:56:43.386Z,8.60
2018-11-12T13:59:14.081Z,9.47
2018-11-12T14:01:46.273Z,9.70
2018-11-12T14:04:17.436Z,9.47
2018-11-12T14:06:48.098Z,10.00
2018-11-12T14:09:18.680Z,9.80
2018-11-12T14:11:50.349Z,9.07
2018-11-12T14:14:21.333Z,9.63
2018-11-12T14:16:51.968Z,10.03
2018-11-12T14:19:22.994Z,9.87
2018-11-12T14:21:54.204Z,11.10
2018-11-12T14:24:25.088Z,10.00
2018-11-12T14:26:56.226Z,10.23
2018-11-12T14:29:26.918Z,10.67
2018-11-12T14:31:57.862Z,9.67
2018-11-12T14:34:28.711Z,10.77
2018-11-12T14:36:59.656Z,10.13
2018-11-12T14:39:30.666Z,10.37
2018-11-12T14:42:01.593Z,9.57
2018-11-12T14:44:32.198Z,10.27
2018-11-12T14:47:03.213Z,10.30
2018-11-12T14:49:34.217Z,10.43
2018-11-12T14:52:08.137Z,11.20
2018-11-12T14:54:38.792Z,10.37
2018-11-12T14:57:11.327Z,10.47
2018-11-12T14:59:45.586Z,10.80
2018-11-12T15:02:17.179Z,10.50
2018-11-12T15:04:49.104Z,10.80
2018-11-12T15:07:21.145Z,10.93
2018-11-12T15:09:52.473Z,10.57
2018-11-12T15:12:24.075Z,11.27
2018-11-12T15:14:55.788Z,11.33
2018-11-12T15:17:26.472Z,11.03
2018-11-12T15:19:58.660Z,11.80
2018-11-12T15:22:29.743Z,10.47
2018-11-12T15:25:01.966Z,11.13
2018-11-12T15:27:35.863Z,10.43
2018-11-12T15:30:12.044Z,11.53
2018-11-12T15:32:46.464Z,12.17
2018-11-12T15:35:22.540Z,10.33
2018-11-12T15:37:54.235Z,12.73
2018-11-12T15:40:25.986Z,10.30
2018-11-12T15:42:59.377Z,10.77
2018-11-12T15:45:34.064Z,11.60
2018-11-12T15:48:05.014Z,11.10
2018-11-12T15:50:37.919Z,12.27
2018-11-12T15:53:09.165Z,12.63
2018-11-12T15:55:42.863Z,12.17
2018-11-12T15:58:15.366Z,12.23
2018-11-12T16:00:47.136Z,11.90
2018-11-12T16:03:17.775Z,12.00
2018-11-12T16:05:51.931Z,12.90
2018-11-12T16:08:22.836Z,12.77
2018-11-12T16:10:56.151Z,12.90
2018-11-12T16:13:27.040Z,13.27
2018-11-12T16:15:58.364Z,12.47
2018-11-12T16:18:30.085Z,13.57
2018-11-12T16:21:03.537Z,13.63
2018-11-12T16:23:36.706Z,13.27
2018-11-12T16:26:07.705Z,14.10
2018-11-12T16:28:41.561Z,14.50
2018-11-12T16:31:13.747Z,15.00
2018-11-12T16:33:46.994Z,14.17
2018-11-12T16:36:17.960Z,15.27
2018-11-12T16:38:51.831Z,15.20
2018-11-12T16:41:25.265Z,14.97
2018-11-12T16:43:57.744Z,15.13
2018-11-12T16:46:29.947Z,16.37
2018-11-12T16:49:02.121Z,15.70
2018-11-12T16:51:32.924Z,14.53
2018-11-12T16:54:08.014Z,14.77
2018-11-12T16:56:40.094Z,15.43
2018-11-12T16:59:13.317Z,15.33
2018-11-12T17:01:48.629Z,15.87
2018-11-12T17:04:20.614Z,16.30
2018-11-12T17:06:53.047Z,15.23
2018-11-12T17:09:26.321Z,15.00
2018-11-12T17:11:58.148Z,16.23
2018-11-12T17:14:34.101Z,14.87
2018-11-12T17:17:04.845Z,14.83
2018-11-12T17:19:36.520Z,15.17
2018-11-12T17:22:08.623Z,15.37
2018-11-12T17:24:39.382Z,16.23
2018-11-12T17:27:11.644Z,14.77
2018-11-12T17:29:43.784Z,15.93
2018-11-12T17:32:16.114Z,16.03
2018-11-12T17:34:46.791Z,16.67
2018-11-12T17:37:19.054Z,16.03
2018-11-12T17:39:50.184Z,15.20
2018-11-12T17:42:20.803Z,15.83
2018-11-12T17:44:55.557Z,15.73
2018-11-12T17:47:27.074Z,16.27
2018-11-12T17:49:57.845Z,16.00
2018-11-12T17:52:29.885Z,15.87
2018-11-12T17:55:00.847Z,16.27
2018-11-12T17:57:31.668Z,16.57
2018-11-12T18:00:02.763Z,16.93
2018-11-12T18:02:34.034Z,15.63
2018-11-12T18:05:06.640Z,15.67
2018-11-12T18:07:38.191Z,17.37
2018-11-12T18:10:10.402Z,17.13
2018-11-12T18:12:43.795Z,17.17
2018-11-12T18:15:17.708Z,17.00
2018-11-12T18:17:48.756Z,18.27
2018-11-12T18:20:25.763Z,16.67
2018-11-12T18:22:57.457Z,18.03
2018-11-12T18:25:28.935Z,17.27
2018-11-12T18:27:59.742Z,17.47
2018-11-12T18:30:32.841Z,16.03
2018-11-12T18:33:04.482Z,17.53
2018-11-12T18:35:37.874Z,17.77
2018-11-12T18:38:09.263Z,19.03
2018-11-12T18:40:41.417Z,18.73
2018-11-12T18:43:12.285Z,17.40
2018-11-12T18:45:43.315Z,18.07
2018-11-12T18:48:15.437Z,16.73
2018-11-12T18:50:46.860Z,16.63
2018-11-12T18:53:17.591Z,16.27
2018-11-12T18:55:48.442Z,17.50
2018-11-12T18:58:19.442Z,19.00
2018-11-12T19:00:50.300Z,18.97
2018-11-12T19:03:21.482Z,20.60
2018-11-12T19:05:52.779Z,19.93
2018-11-12T19:08:23.790Z,18.40
2018-11-12T19:10:54.571Z,17.87
2018-11-12T19:13:25.594Z,17.50
2018-11-12T19:15:56.596Z,19.27
2018-11-12T19:18:27.488Z,19.87
2018-11-12T19:21:02.023Z,19.17
2018-11-12T19:23:34.400Z,18.57
2018-11-12T19:26:06.090Z,18.40
2018-11-12T19:28:36.836Z,17.83
2018-11-12T19:31:09.825Z,20.13
2018-11-12T19:33:41.008Z,20.47
2018-11-12T19:36:32.638Z,19.27
2018-11-12T19:39:08.058Z,20.33
2018-11-12T19:41:45.978Z,20.27
2018-11-12T19:44:16.716Z,20.50
2018-11-12T19:46:48.915Z,19.57
2018-11-12T19:49:20.749Z,20.10
2018-11-12T19:51:53.417Z,19.23
2018-11-12T19:54:24.721Z,20.23
2018-11-12T19:56:56.542Z,19.73
2018-11-12T19:59:27.325Z,19.40
2018-11-12T20:01:58.012Z,20.57
2018-11-12T20:04:30.009Z,19.27
2018-11-12T20:07:01.037Z,18.27
2018-11-12T20:09:31.551Z,20.77
2018-11-12T20:12:02.245Z,20.67
2018-11-12T20:14:33.195Z,19.77
2018-11-12T20:17:04.412Z,19.67
2018-11-12T20:19:36.936Z,19.47
2018-11-12T20:22:07.381Z,19.83
2018-11-12T20:24:38.990Z,19.43
2018-11-12T20:27:10.739Z,21.50
2018-11-12T20:29:41.262Z,21.30
2018-11-12T20:32:12.520Z,19.43
2018-11-12T20:34:43.327Z,20.27
2018-11-12T20:37:14.110Z,21.27
2018-11-12T20:39:45.910Z,18.87
2018-11-12T20:42:16.488Z,18.80
2018-11-12T20:44:48.841Z,20.17
2018-11-12T20:47:19.378Z,19.77
2018-11-12T20:49:50.457Z,20.80
2018-11-12T20:52:21.232Z,20.77
2018-11-12T20:54:52.338Z,19.47
2018-11-12T20:57:23.201Z,19.13
2018-11-12T20:59:53.944Z,20.27
2018-11-12T21:02:25.594Z,19.00
2018-11-12T21:05:01.259Z,19.07
2018-11-12T21:07:33.643Z,20.00
2018-11-12T21:10:07.568Z,19.17
2018-11-12T21:12:38.290Z,20.23
2018-11-12T21:15:13.632Z,19.43
2018-11-12T21:17:44.468Z,20.63
2018-11-12T21:20:16.906Z,21.73
2018-11-12T21:22:52.054Z,18.70
2018-11-12T21:25:24.933Z,19.97
2018-11-12T21:27:55.399Z,20.73
2018-11-12T21:30:29.427Z,19.93
2018-11-12T21:33:04.506Z,20.67
2018-11-12T21:35:35.637Z,20.13
2018-11-12T21:38:09.961Z,21.10
2018-11-12T21:40:41.510Z,20.10
2018-11-12T21:43:14.883Z,20.30
2018-11-12T21:45:49.789Z,20.60
2018-11-12T21:48:23.459Z,21.47
2018-11-12T21:50:55.586Z,20.73
2018-11-12T21:53:28.189Z,19.70
2018-11-12T21:55:59.213Z,21.13
2018-11-12T21:58:32.342Z,19.80
2018-11-12T22:01:05.972Z,21.20
2018-11-12T22:03:39.309Z,20.53
2018-11-12T22:06:10.323Z,21.00
2018-11-12T22:08:43.365Z,19.97
2018-11-12T22:11:21.872Z,19.83
2018-11-12T22:13:55.785Z,20.67
2018-11-12T22:16:27.355Z,20.97
2018-11-12T22:18:58.991Z,20.57
2018-11-12T22:21:30.964Z,22.43
2018-11-12T22:24:01.788Z,21.83
2018-11-12T22:26:34.967Z,20.27
2018-11-12T22:29:06.863Z,21.30
2018-11-12T22:31:38.242Z,20.70
2018-11-12T22:34:10.077Z,21.17
2018-11-12T22:36:43.301Z,21.63
2018-11-12T22:39:13.892Z,21.83
2018-11-12T22:41:44.841Z,22.47
2018-11-12T22:44:15.367Z,22.83
2018-11-12T22:46:46.025Z,22.13
2018-11-12T22:49:18.122Z,22.13
2018-11-12T22:54:58.453Z,21.37
2018-11-12T22:57:30.728Z,22.23
2018-11-12T23:00:02.480Z,21.20
2018-11-12T23:02:33.301Z,22.43
2018-11-12T23:05:05.886Z,23.27
2018-11-12T23:07:37.067Z,21.93
2018-11-12T23:10:10.033Z,22.07
2018-11-12T23:12:41.221Z,22.30
2018-11-12T23:15:12.644Z,21.43
2018-11-12T23:17:44.055Z,21.77
2018-11-12T23:20:21.110Z,22.20
2018-11-12T23:22:52.554Z,22.17
2018-11-12T23:25:23.570Z,22.47
2018-11-12T23:27:54.850Z,21.67
2018-11-12T23:30:25.880Z,23.03
2018-11-12T23:32:56.736Z,22.87
2018-11-12T23:35:27.456Z,21.90
2018-11-12T23:37:58.176Z,23.23
2018-11-12T23:40:29.168Z,23.30
2018-11-12T23:43:01.672Z,23.70
2018-11-12T23:45:32.819Z,23.00
2018-11-12T23:48:05.389Z,23.40
2018-11-12T23:50:36.088Z,23.57
2018-11-12T23:53:06.876Z,23.83
2018-11-12T23:55:37.708Z,23.77
2018-11-12T23:58:12.401Z,23.13
